sensor_id;sensor_type;location;lat;lon;timestamp;temperature;humidity
39881;DHT22;25554;44.954;10.068;2023-11-18T00:01:37;7.80;99.90
39881;DHT22;25554;44.954;10.068;2023-11-18T00:04:07;7.80;99.90
39881;DHT22;25554;44.954;10.068;2023-11-18T00:06:44;7.80;99.90
39881;DHT22;25554;44.954;10.068;2023-11-18T00:09:11;7.80;99.90
39881;DHT22;25554;44.954;10.068;2023-11-18T00:11:41;7.90;99.90
39881;DHT22;25554;44.954;10.068;2023-11-18T00:14:11;7.90;99.90
39881;DHT22;25554;44.954;10.068;2023-11-18T00:16:37;7.90;99.90
39881;DHT22;25554;44.954;10.068;2023-11-18T00:19:04;7.90;99.90
39881;DHT22;25554;44.954;10.068;2023-11-18T00:21:31;7.90;99.90
39881;DHT22;25554;44.954;10.068;2023-11-18T00:23:58;7.90;99.90
39881;DHT22;25554;44.954;10.068;2023-11-18T00:26:24;7.80;99.90
39881;DHT22;25554;44.954;10.068;2023-11-18T00:28:57;7.80;99.90
39881;DHT22;25554;44.954;10.068;2023-11-18T00:31:25;7.80;99.90
39881;DHT22;25554;44.954;10.068;2023-11-18T00:33:51;7.80;99.90
39881;DHT22;25554;44.954;10.068;2023-11-18T00:36:18;7.70;99.90
39881;DHT22;25554;44.954;10.068;2023-11-18T00:38:45;7.70;99.90
39881;DHT22;25554;44.954;10.068;2023-11-18T00:41:11;7.60;99.90
39881;DHT22;25554;44.954;10.068;2023-11-18T00:43:39;7.60;99.90
39881;DHT22;25554;44.954;10.068;2023-11-18T00:46:06;7.50;99.90
39881;DHT22;25554;44.954;10.068;2023-11-18T00:48:32;7.50;99.90
39881;DHT22;25554;44.954;10.068;2023-11-18T00:50:58;7.40;99.90
39881;DHT22;25554;44.954;10.068;2023-11-18T00:53:25;7.40;99.90
39881;DHT22;25554;44.954;10.068;2023-11-18T00:55:51;7.40;99.90
39881;DHT22;25554;44.954;10.068;2023-11-18T00:58:17;7.40;99.90
39881;DHT22;25554;44.954;10.068;2023-11-18T01:00:44;7.40;99.90
39881;DHT22;25554;44.954;10.068;2023-11-18T01:03:10;7.30;99.90
39881;DHT22;25554;44.954;10.068;2023-11-18T01:05:36;7.30;99.90
39881;DHT22;25554;44.954;10.068;2023-11-18T01:08:03;7.30;99.90
39881;DHT22;25554;44.954;10.068;2023-11-18T01:10:31;7.30;99.90
39881;DHT22;25554;44.954;10.068;2023-11-18T01:12:57;7.20;99.90
39881;DHT22;25554;44.954;10.068;2023-11-18T01:15:25;7.20;99.90
39881;DHT22;25554;44.954;10.068;2023-11-18T01:17:51;7.20;99.90
39881;DHT22;25554;44.954;10.068;2023-11-18T01:20:17;7.20;99.90
39881;DHT22;25554;44.954;10.068;2023-11-18T01:22:48;7.20;99.90
39881;DHT22;25554;44.954;10.068;2023-11-18T01:25:15;7.10;99.90
39881;DHT22;25554;44.954;10.068;2023-11-18T01:27:45;7.10;99.90
39881;DHT22;25554;44.954;10.068;2023-11-18T01:30:13;7.10;99.90
39881;DHT22;25554;44.954;10.068;2023-11-18T01:32:40;7.10;99.90
39881;DHT22;25554;44.954;10.068;2023-11-18T01:35:07;7.00;99.90
39881;DHT22;25554;44.954;10.068;2023-11-18T01:37:34;6.80;99.90
39881;DHT22;25554;44.954;10.068;2023-11-18T01:40:01;6.70;99.90
39881;DHT22;25554;44.954;10.068;2023-11-18T01:42:31;6.70;99.90
39881;DHT22;25554;44.954;10.068;2023-11-18T01:44:57;6.70;99.90
39881;DHT22;25554;44.954;10.068;2023-11-18T01:47:26;6.60;99.90
39881;DHT22;25554;44.954;10.068;2023-11-18T01:49:53;6.60;99.90
39881;DHT22;25554;44.954;10.068;2023-11-18T01:52:19;6.70;99.90
39881;DHT22;25554;44.954;10.068;2023-11-18T01:54:48;6.70;99.90
39881;DHT22;25554;44.954;10.068;2023-11-18T01:57:14;6.70;99.90
39881;DHT22;25554;44.954;10.068;2023-11-18T01:59:42;6.80;99.90
39881;DHT22;25554;44.954;10.068;2023-11-18T02:02:09;6.80;99.90
39881;DHT22;25554;44.954;10.068;2023-11-18T02:04:35;6.80;99.90
39881;DHT22;25554;44.954;10.068;2023-11-18T02:07:02;6.80;99.90
39881;DHT22;25554;44.954;10.068;2023-11-18T02:09:35;6.80;99.90
39881;DHT22;25554;44.954;10.068;2023-11-18T02:14:48;6.90;99.90
39881;DHT22;25554;44.954;10.068;2023-11-18T02:17:18;6.90;99.90
39881;DHT22;25554;44.954;10.068;2023-11-18T02:19:46;6.90;99.90
39881;DHT22;25554;44.954;10.068;2023-11-18T02:22:13;6.90;99.90
39881;DHT22;25554;44.954;10.068;2023-11-18T02:24:39;6.80;99.90
39881;DHT22;25554;44.954;10.068;2023-11-18T02:27:07;6.80;99.90
39881;DHT22;25554;44.954;10.068;2023-11-18T02:29:36;6.80;99.90
39881;DHT22;25554;44.954;10.068;2023-11-18T02:32:37;6.80;99.90
39881;DHT22;25554;44.954;10.068;2023-11-18T02:35:14;6.80;99.90
39881;DHT22;25554;44.954;10.068;2023-11-18T02:37:44;6.80;99.90
39881;DHT22;25554;44.954;10.068;2023-11-18T02:40:19;6.80;99.90
39881;DHT22;25554;44.954;10.068;2023-11-18T02:42:45;6.80;99.90
39881;DHT22;25554;44.954;10.068;2023-11-18T02:45:15;6.80;99.90
39881;DHT22;25554;44.954;10.068;2023-11-18T02:47:45;6.80;99.90
39881;DHT22;25554;44.954;10.068;2023-11-18T02:50:12;6.80;99.90
39881;DHT22;25554;44.954;10.068;2023-11-18T02:52:42;6.80;99.90
39881;DHT22;25554;44.954;10.068;2023-11-18T02:55:09;6.70;99.90
39881;DHT22;25554;44.954;10.068;2023-11-18T02:57:35;6.60;99.90
39881;DHT22;25554;44.954;10.068;2023-11-18T03:00:06;6.50;99.90
39881;DHT22;25554;44.954;10.068;2023-11-18T03:02:37;6.40;99.90
39881;DHT22;25554;44.954;10.068;2023-11-18T03:05:08;6.20;99.90
39881;DHT22;25554;44.954;10.068;2023-11-18T03:07:38;6.10;99.90
39881;DHT22;25554;44.954;10.068;2023-11-18T03:10:05;6.00;99.90
39881;DHT22;25554;44.954;10.068;2023-11-18T03:12:37;6.20;99.90
39881;DHT22;25554;44.954;10.068;2023-11-18T03:15:05;5.90;99.90
39881;DHT22;25554;44.954;10.068;2023-11-18T03:17:35;5.80;99.90
39881;DHT22;25554;44.954;10.068;2023-11-18T03:20:02;5.60;99.90
39881;DHT22;25554;44.954;10.068;2023-11-18T03:22:28;5.60;99.90
39881;DHT22;25554;44.954;10.068;2023-11-18T03:24:55;5.50;99.90
39881;DHT22;25554;44.954;10.068;2023-11-18T03:27:22;5.40;99.90
39881;DHT22;25554;44.954;10.068;2023-11-18T03:29:49;5.30;99.90
39881;DHT22;25554;44.954;10.068;2023-11-18T03:32:15;5.20;99.90
39881;DHT22;25554;44.954;10.068;2023-11-18T03:34:41;5.10;99.90
39881;DHT22;25554;44.954;10.068;2023-11-18T03:37:07;5.10;99.90
39881;DHT22;25554;44.954;10.068;2023-11-18T03:39:34;5.10;99.90
39881;DHT22;25554;44.954;10.068;2023-11-18T03:42:00;5.00;99.90
39881;DHT22;25554;44.954;10.068;2023-11-18T03:44:26;4.30;99.90
39881;DHT22;25554;44.954;10.068;2023-11-18T03:46:53;5.00;99.90
39881;DHT22;25554;44.954;10.068;2023-11-18T03:49:19;3.70;99.90
39881;DHT22;25554;44.954;10.068;2023-11-18T03:51:46;5.10;99.90
39881;DHT22;25554;44.954;10.068;2023-11-18T03:54:13;5.20;99.90
39881;DHT22;25554;44.954;10.068;2023-11-18T03:59:07;5.40;99.90
39881;DHT22;25554;44.954;10.068;2023-11-18T04:01:35;5.10;99.90
39881;DHT22;25554;44.954;10.068;2023-11-18T04:04:02;5.50;99.90
39881;DHT22;25554;44.954;10.068;2023-11-18T04:06:30;5.50;99.90
39881;DHT22;25554;44.954;10.068;2023-11-18T04:08:57;5.50;99.90
39881;DHT22;25554;44.954;10.068;2023-11-18T04:11:23;5.50;99.90
39881;DHT22;25554;44.954;10.068;2023-11-18T04:13:49;5.50;99.90
39881;DHT22;25554;44.954;10.068;2023-11-18T04:16:16;5.50;99.90
39881;DHT22;25554;44.954;10.068;2023-11-18T04:18:43;5.50;99.90
39881;DHT22;25554;44.954;10.068;2023-11-18T04:21:11;5.50;99.90
39881;DHT22;25554;44.954;10.068;2023-11-18T04:23:43;5.60;99.90
39881;DHT22;25554;44.954;10.068;2023-11-18T04:26:10;5.60;99.90
39881;DHT22;25554;44.954;10.068;2023-11-18T04:28:36;5.70;99.90
39881;DHT22;25554;44.954;10.068;2023-11-18T04:31:03;5.70;99.90
39881;DHT22;25554;44.954;10.068;2023-11-18T04:33:31;5.80;99.90
39881;DHT22;25554;44.954;10.068;2023-11-18T04:35:57;5.80;99.90
39881;DHT22;25554;44.954;10.068;2023-11-18T04:38:24;5.80;99.90
39881;DHT22;25554;44.954;10.068;2023-11-18T04:40:55;6.30;99.90
39881;DHT22;25554;44.954;10.068;2023-11-18T04:43:21;5.80;99.90
39881;DHT22;25554;44.954;10.068;2023-11-18T04:45:49;5.80;99.90
39881;DHT22;25554;44.954;10.068;2023-11-18T04:48:16;5.70;99.90
39881;DHT22;25554;44.954;10.068;2023-11-18T04:50:42;4.90;99.90
39881;DHT22;25554;44.954;10.068;2023-11-18T04:53:09;5.70;99.90
39881;DHT22;25554;44.954;10.068;2023-11-18T04:55:38;5.60;99.90
39881;DHT22;25554;44.954;10.068;2023-11-18T04:58:04;5.50;99.90
39881;DHT22;25554;44.954;10.068;2023-11-18T05:00:33;5.40;99.90
39881;DHT22;25554;44.954;10.068;2023-11-18T05:02:59;5.30;99.90
39881;DHT22;25554;44.954;10.068;2023-11-18T05:05:25;5.20;99.90
39881;DHT22;25554;44.954;10.068;2023-11-18T05:07:52;5.20;99.90
39881;DHT22;25554;44.954;10.068;2023-11-18T05:10:18;5.10;99.90
39881;DHT22;25554;44.954;10.068;2023-11-18T05:12:44;5.00;99.90
39881;DHT22;25554;44.954;10.068;2023-11-18T05:15:11;5.00;99.90
39881;DHT22;25554;44.954;10.068;2023-11-18T05:17:38;5.00;99.90
39881;DHT22;25554;44.954;10.068;2023-11-18T05:20:06;4.90;99.90
39881;DHT22;25554;44.954;10.068;2023-11-18T05:22:37;4.90;99.90
39881;DHT22;25554;44.954;10.068;2023-11-18T05:25:03;4.90;99.90
39881;DHT22;25554;44.954;10.068;2023-11-18T05:27:33;4.80;99.90
39881;DHT22;25554;44.954;10.068;2023-11-18T05:30:00;4.80;99.90
39881;DHT22;25554;44.954;10.068;2023-11-18T05:32:29;4.80;99.90
39881;DHT22;25554;44.954;10.068;2023-11-18T05:34:59;4.70;99.90
39881;DHT22;25554;44.954;10.068;2023-11-18T05:37:26;4.60;99.90
39881;DHT22;25554;44.954;10.068;2023-11-18T05:40:02;4.60;99.90
39881;DHT22;25554;44.954;10.068;2023-11-18T05:42:35;4.50;99.90
39881;DHT22;25554;44.954;10.068;2023-11-18T05:45:06;4.50;99.90
39881;DHT22;25554;44.954;10.068;2023-11-18T05:47:34;4.40;99.90
39881;DHT22;25554;44.954;10.068;2023-11-18T05:50:03;4.40;99.90
39881;DHT22;25554;44.954;10.068;2023-11-18T05:52:31;4.40;99.90
39881;DHT22;25554;44.954;10.068;2023-11-18T05:54:58;4.40;99.90
39881;DHT22;25554;44.954;10.068;2023-11-18T05:57:25;4.30;99.90
39881;DHT22;25554;44.954;10.068;2023-11-18T05:59:53;4.30;99.90
39881;DHT22;25554;44.954;10.068;2023-11-18T06:02:21;4.20;99.90
39881;DHT22;25554;44.954;10.068;2023-11-18T06:04:47;4.20;99.90
39881;DHT22;25554;44.954;10.068;2023-11-18T06:07:15;4.20;99.90
39881;DHT22;25554;44.954;10.068;2023-11-18T06:09:43;4.20;99.90
39881;DHT22;25554;44.954;10.068;2023-11-18T06:12:10;4.20;99.90
39881;DHT22;25554;44.954;10.068;2023-11-18T06:14:37;4.10;99.90
39881;DHT22;25554;44.954;10.068;2023-11-18T06:17:04;4.10;99.90
39881;DHT22;25554;44.954;10.068;2023-11-18T06:19:30;4.10;99.90
39881;DHT22;25554;44.954;10.068;2023-11-18T06:21:56;4.00;99.90
39881;DHT22;25554;44.954;10.068;2023-11-18T06:24:23;4.10;99.90
39881;DHT22;25554;44.954;10.068;2023-11-18T06:26:49;4.00;99.90
39881;DHT22;25554;44.954;10.068;2023-11-18T06:29:15;4.00;99.90
39881;DHT22;25554;44.954;10.068;2023-11-18T06:31:42;4.00;99.90
39881;DHT22;25554;44.954;10.068;2023-11-18T06:34:11;4.10;99.90
39881;DHT22;25554;44.954;10.068;2023-11-18T06:36:38;4.20;99.90
39881;DHT22;25554;44.954;10.068;2023-11-18T06:39:05;4.20;99.90
39881;DHT22;25554;44.954;10.068;2023-11-18T06:41:32;4.20;99.90
39881;DHT22;25554;44.954;10.068;2023-11-18T06:44:04;4.20;99.90
39881;DHT22;25554;44.954;10.068;2023-11-18T06:46:44;4.20;99.90
39881;DHT22;25554;44.954;10.068;2023-11-18T06:49:10;4.30;99.90
39881;DHT22;25554;44.954;10.068;2023-11-18T06:51:41;4.20;99.90
39881;DHT22;25554;44.954;10.068;2023-11-18T06:54:07;4.30;99.90
39881;DHT22;25554;44.954;10.068;2023-11-18T06:56:41;4.30;99.90
39881;DHT22;25554;44.954;10.068;2023-11-18T06:59:13;4.40;99.90
39881;DHT22;25554;44.954;10.068;2023-11-18T07:01:40;4.40;99.90
39881;DHT22;25554;44.954;10.068;2023-11-18T07:04:08;4.50;99.90
39881;DHT22;25554;44.954;10.068;2023-11-18T07:06:35;4.70;99.90
39881;DHT22;25554;44.954;10.068;2023-11-18T07:09:07;4.80;99.90
39881;DHT22;25554;44.954;10.068;2023-11-18T07:11:44;5.00;99.90
39881;DHT22;25554;44.954;10.068;2023-11-18T07:14:11;5.10;99.90
39881;DHT22;25554;44.954;10.068;2023-11-18T07:16:38;5.30;99.90
39881;DHT22;25554;44.954;10.068;2023-11-18T07:19:05;5.40;99.90
39881;DHT22;25554;44.954;10.068;2023-11-18T07:21:32;5.50;99.90
39881;DHT22;25554;44.954;10.068;2023-11-18T07:24:00;5.60;99.90
39881;DHT22;25554;44.954;10.068;2023-11-18T07:26:27;5.70;99.90
39881;DHT22;25554;44.954;10.068;2023-11-18T07:28:53;5.80;99.90
39881;DHT22;25554;44.954;10.068;2023-11-18T07:31:20;5.90;99.90
39881;DHT22;25554;44.954;10.068;2023-11-18T07:33:46;6.10;99.90
39881;DHT22;25554;44.954;10.068;2023-11-18T07:36:17;6.20;99.90
39881;DHT22;25554;44.954;10.068;2023-11-18T07:38:49;6.30;99.90
39881;DHT22;25554;44.954;10.068;2023-11-18T07:41:16;6.40;99.90
39881;DHT22;25554;44.954;10.068;2023-11-18T07:44:00;6.30;99.90
39881;DHT22;25554;44.954;10.068;2023-11-18T07:46:26;6.40;99.90
39881;DHT22;25554;44.954;10.068;2023-11-18T07:48:54;6.50;99.90
39881;DHT22;25554;44.954;10.068;2023-11-18T07:51:21;6.50;99.90
39881;DHT22;25554;44.954;10.068;2023-11-18T07:53:49;6.60;99.90
39881;DHT22;25554;44.954;10.068;2023-11-18T07:56:15;6.70;99.90
39881;DHT22;25554;44.954;10.068;2023-11-18T07:58:43;6.80;99.90
39881;DHT22;25554;44.954;10.068;2023-11-18T08:01:13;6.90;99.90
39881;DHT22;25554;44.954;10.068;2023-11-18T08:03:42;7.00;99.90
39881;DHT22;25554;44.954;10.068;2023-11-18T08:06:08;7.10;99.90
39881;DHT22;25554;44.954;10.068;2023-11-18T08:08:36;7.20;99.90
39881;DHT22;25554;44.954;10.068;2023-11-18T08:11:10;7.30;99.90
39881;DHT22;25554;44.954;10.068;2023-11-18T08:13:36;7.40;99.90
39881;DHT22;25554;44.954;10.068;2023-11-18T08:16:02;7.50;99.90
39881;DHT22;25554;44.954;10.068;2023-11-18T08:18:29;7.60;99.90
39881;DHT22;25554;44.954;10.068;2023-11-18T08:20:57;7.60;99.90
39881;DHT22;25554;44.954;10.068;2023-11-18T08:23:26;7.60;99.90
39881;DHT22;25554;44.954;10.068;2023-11-18T08:25:54;7.60;99.90
39881;DHT22;25554;44.954;10.068;2023-11-18T08:28:21;7.70;99.90
39881;DHT22;25554;44.954;10.068;2023-11-18T08:30:48;7.80;99.90
39881;DHT22;25554;44.954;10.068;2023-11-18T08:33:15;7.80;99.90
39881;DHT22;25554;44.954;10.068;2023-11-18T08:35:41;7.90;99.90
39881;DHT22;25554;44.954;10.068;2023-11-18T08:38:08;8.00;99.90
39881;DHT22;25554;44.954;10.068;2023-11-18T08:40:34;8.00;99.90
39881;DHT22;25554;44.954;10.068;2023-11-18T08:43:02;8.10;99.90
39881;DHT22;25554;44.954;10.068;2023-11-18T08:45:33;8.20;99.90
39881;DHT22;25554;44.954;10.068;2023-11-18T08:48:02;8.40;99.90
39881;DHT22;25554;44.954;10.068;2023-11-18T08:50:35;8.40;99.90
39881;DHT22;25554;44.954;10.068;2023-11-18T08:53:02;8.50;99.90
39881;DHT22;25554;44.954;10.068;2023-11-18T08:55:32;8.60;99.90
39881;DHT22;25554;44.954;10.068;2023-11-18T08:58:16;8.70;99.90
39881;DHT22;25554;44.954;10.068;2023-11-18T09:00:51;8.90;99.90
39881;DHT22;25554;44.954;10.068;2023-11-18T09:03:24;9.00;99.90
39881;DHT22;25554;44.954;10.068;2023-11-18T09:05:52;10.40;99.90
39881;DHT22;25554;44.954;10.068;2023-11-18T09:08:45;9.00;99.90
39881;DHT22;25554;44.954;10.068;2023-11-18T09:11:13;9.10;99.90
39881;DHT22;25554;44.954;10.068;2023-11-18T09:13:44;9.20;99.90
39881;DHT22;25554;44.954;10.068;2023-11-18T09:16:15;8.50;99.90
39881;DHT22;25554;44.954;10.068;2023-11-18T09:18:43;9.40;99.90
39881;DHT22;25554;44.954;10.068;2023-11-18T09:21:13;9.50;99.90
39881;DHT22;25554;44.954;10.068;2023-11-18T09:23:45;9.60;99.90
39881;DHT22;25554;44.954;10.068;2023-11-18T09:26:14;9.60;99.90
39881;DHT22;25554;44.954;10.068;2023-11-18T09:28:40;9.70;99.90
39881;DHT22;25554;44.954;10.068;2023-11-18T09:31:07;9.80;99.90
39881;DHT22;25554;44.954;10.068;2023-11-18T09:33:39;9.90;99.90
39881;DHT22;25554;44.954;10.068;2023-11-18T09:36:07;10.00;99.90
39881;DHT22;25554;44.954;10.068;2023-11-18T09:38:39;10.00;99.90
39881;DHT22;25554;44.954;10.068;2023-11-18T09:41:10;10.10;99.90
39881;DHT22;25554;44.954;10.068;2023-11-18T09:43:38;10.20;99.90
39881;DHT22;25554;44.954;10.068;2023-11-18T09:46:15;10.20;99.90
39881;DHT22;25554;44.954;10.068;2023-11-18T09:48:43;10.30;99.90
39881;DHT22;25554;44.954;10.068;2023-11-18T09:51:23;10.30;99.90
39881;DHT22;25554;44.954;10.068;2023-11-18T09:53:52;10.40;99.90
39881;DHT22;25554;44.954;10.068;2023-11-18T09:56:27;10.40;99.90
39881;DHT22;25554;44.954;10.068;2023-11-18T09:59:31;10.50;99.90
39881;DHT22;25554;44.954;10.068;2023-11-18T10:02:02;10.60;99.90
39881;DHT22;25554;44.954;10.068;2023-11-18T10:04:30;10.70;99.90
39881;DHT22;25554;44.954;10.068;2023-11-18T10:06:58;10.80;99.90
39881;DHT22;25554;44.954;10.068;2023-11-18T10:09:24;10.90;99.90
39881;DHT22;25554;44.954;10.068;2023-11-18T10:11:55;10.90;99.90
39881;DHT22;25554;44.954;10.068;2023-11-18T10:14:27;11.00;99.90
39881;DHT22;25554;44.954;10.068;2023-11-18T10:16:53;11.10;99.90
39881;DHT22;25554;44.954;10.068;2023-11-18T10:19:20;11.00;99.90
39881;DHT22;25554;44.954;10.068;2023-11-18T10:21:47;11.20;99.90
39881;DHT22;25554;44.954;10.068;2023-11-18T10:24:15;11.20;99.90
39881;DHT22;25554;44.954;10.068;2023-11-18T10:26:55;11.20;99.90
39881;DHT22;25554;44.954;10.068;2023-11-18T10:29:28;11.30;99.90
39881;DHT22;25554;44.954;10.068;2023-11-18T10:32:05;11.40;99.90
39881;DHT22;25554;44.954;10.068;2023-11-18T10:34:36;11.10;99.90
39881;DHT22;25554;44.954;10.068;2023-11-18T10:37:03;11.50;99.90
39881;DHT22;25554;44.954;10.068;2023-11-18T10:39:31;11.50;99.90
39881;DHT22;25554;44.954;10.068;2023-11-18T10:42:01;11.60;99.90
39881;DHT22;25554;44.954;10.068;2023-11-18T10:44:28;11.70;99.90
39881;DHT22;25554;44.954;10.068;2023-11-18T10:46:56;11.80;99.90
39881;DHT22;25554;44.954;10.068;2023-11-18T10:49:28;11.80;99.90
39881;DHT22;25554;44.954;10.068;2023-11-18T10:51:55;11.90;99.90
39881;DHT22;25554;44.954;10.068;2023-11-18T10:54:22;12.00;99.90
39881;DHT22;25554;44.954;10.068;2023-11-18T10:56:52;12.10;99.90
39881;DHT22;25554;44.954;10.068;2023-11-18T10:59:22;12.10;99.90
39881;DHT22;25554;44.954;10.068;2023-11-18T11:01:49;12.20;99.90
39881;DHT22;25554;44.954;10.068;2023-11-18T11:04:16;12.30;99.90
39881;DHT22;25554;44.954;10.068;2023-11-18T11:06:48;12.40;99.90
39881;DHT22;25554;44.954;10.068;2023-11-18T11:09:23;12.40;99.90
39881;DHT22;25554;44.954;10.068;2023-11-18T11:11:58;12.50;99.90
39881;DHT22;25554;44.954;10.068;2023-11-18T11:15:08;12.60;99.90
39881;DHT22;25554;44.954;10.068;2023-11-18T11:17:43;13.30;99.90
39881;DHT22;25554;44.954;10.068;2023-11-18T11:20:14;12.80;99.90
39881;DHT22;25554;44.954;10.068;2023-11-18T11:23:21;12.90;99.90
39881;DHT22;25554;44.954;10.068;2023-11-18T11:26:02;13.00;99.90
39881;DHT22;25554;44.954;10.068;2023-11-18T11:28:42;13.10;99.90
39881;DHT22;25554;44.954;10.068;2023-11-18T11:31:17;13.10;99.90
39881;DHT22;25554;44.954;10.068;2023-11-18T11:34:02;13.20;99.90
39881;DHT22;25554;44.954;10.068;2023-11-18T11:36:37;13.30;99.90
39881;DHT22;25554;44.954;10.068;2023-11-18T11:39:10;13.40;99.90
39881;DHT22;25554;44.954;10.068;2023-11-18T11:41:53;13.50;99.90
39881;DHT22;25554;44.954;10.068;2023-11-18T11:44:23;13.60;99.90
39881;DHT22;25554;44.954;10.068;2023-11-18T11:46:58;13.60;99.90
39881;DHT22;25554;44.954;10.068;2023-11-18T11:49:29;13.70;99.90
39881;DHT22;25554;44.954;10.068;2023-11-18T11:52:04;13.70;99.90
39881;DHT22;25554;44.954;10.068;2023-11-18T11:54:43;13.80;99.90
39881;DHT22;25554;44.954;10.068;2023-11-18T11:57:11;13.80;99.90
39881;DHT22;25554;44.954;10.068;2023-11-18T12:02:18;13.90;99.90
39881;DHT22;25554;44.954;10.068;2023-11-18T12:04:50;13.90;99.90
39881;DHT22;25554;44.954;10.068;2023-11-18T12:07:22;13.90;99.90
39881;DHT22;25554;44.954;10.068;2023-11-18T12:09:57;14.00;99.90
39881;DHT22;25554;44.954;10.068;2023-11-18T12:12:25;14.10;99.90
39881;DHT22;25554;44.954;10.068;2023-11-18T12:14:54;14.10;99.90
39881;DHT22;25554;44.954;10.068;2023-11-18T12:17:24;14.10;99.90
39881;DHT22;25554;44.954;10.068;2023-11-18T12:19:54;14.20;99.90
39881;DHT22;25554;44.954;10.068;2023-11-18T12:23:04;14.20;99.70
39881;DHT22;25554;44.954;10.068;2023-11-18T12:25:43;14.30;99.90
39881;DHT22;25554;44.954;10.068;2023-11-18T12:28:15;14.40;99.00
39881;DHT22;25554;44.954;10.068;2023-11-18T12:30:43;14.40;98.90
39881;DHT22;25554;44.954;10.068;2023-11-18T12:33:21;14.40;99.20
39881;DHT22;25554;44.954;10.068;2023-11-18T12:41:34;14.40;98.50
39881;DHT22;25554;44.954;10.068;2023-11-18T12:44:23;14.50;98.30
39881;DHT22;25554;44.954;10.068;2023-11-18T12:47:04;14.50;98.60
39881;DHT22;25554;44.954;10.068;2023-11-18T12:49:47;14.50;99.20
39881;DHT22;25554;44.954;10.068;2023-11-18T12:52:21;14.50;99.60
39881;DHT22;25554;44.954;10.068;2023-11-18T12:54:48;14.60;98.40
39881;DHT22;25554;44.954;10.068;2023-11-18T12:57:20;14.60;98.60
39881;DHT22;25554;44.954;10.068;2023-11-18T12:59:49;14.60;98.90
39881;DHT22;25554;44.954;10.068;2023-11-18T13:02:16;14.80;99.30
39881;DHT22;25554;44.954;10.068;2023-11-18T13:04:49;14.80;99.40
39881;DHT22;25554;44.954;10.068;2023-11-18T13:07:16;14.90;98.50
39881;DHT22;25554;44.954;10.068;2023-11-18T13:09:50;15.00;98.70
39881;DHT22;25554;44.954;10.068;2023-11-18T13:12:17;15.00;99.00
39881;DHT22;25554;44.954;10.068;2023-11-18T13:14:46;15.00;99.00
39881;DHT22;25554;44.954;10.068;2023-11-18T13:17:15;15.00;98.70
39881;DHT22;25554;44.954;10.068;2023-11-18T13:19:44;15.10;97.60
39881;DHT22;25554;44.954;10.068;2023-11-18T13:22:13;15.10;97.40
39881;DHT22;25554;44.954;10.068;2023-11-18T13:24:43;15.10;98.10
39881;DHT22;25554;44.954;10.068;2023-11-18T13:27:16;15.20;98.50
39881;DHT22;25554;44.954;10.068;2023-11-18T13:29:47;15.20;98.40
39881;DHT22;25554;44.954;10.068;2023-11-18T13:32:19;15.20;97.80
39881;DHT22;25554;44.954;10.068;2023-11-18T13:34:49;15.20;97.20
39881;DHT22;25554;44.954;10.068;2023-11-18T13:37:17;15.30;97.10
39881;DHT22;25554;44.954;10.068;2023-11-18T13:39:57;15.30;96.60
39881;DHT22;25554;44.954;10.068;2023-11-18T13:42:26;15.30;97.10
39881;DHT22;25554;44.954;10.068;2023-11-18T13:45:03;15.40;96.00
39881;DHT22;25554;44.954;10.068;2023-11-18T13:47:34;15.40;95.90
39881;DHT22;25554;44.954;10.068;2023-11-18T13:50:00;15.40;96.10
39881;DHT22;25554;44.954;10.068;2023-11-18T13:52:26;15.40;95.90
39881;DHT22;25554;44.954;10.068;2023-11-18T13:54:53;15.50;95.70
39881;DHT22;25554;44.954;10.068;2023-11-18T13:57:21;15.50;95.90
39881;DHT22;25554;44.954;10.068;2023-11-18T13:59:51;15.50;95.80
39881;DHT22;25554;44.954;10.068;2023-11-18T14:02:18;15.50;95.80
39881;DHT22;25554;44.954;10.068;2023-11-18T14:04:44;15.00;95.50
39881;DHT22;25554;44.954;10.068;2023-11-18T14:07:14;15.50;96.10
39881;DHT22;25554;44.954;10.068;2023-11-18T14:09:43;15.60;95.80
39881;DHT22;25554;44.954;10.068;2023-11-18T14:12:13;15.50;96.10
39881;DHT22;25554;44.954;10.068;2023-11-18T14:14:39;15.50;95.80
39881;DHT22;25554;44.954;10.068;2023-11-18T14:17:06;15.50;95.70
39881;DHT22;25554;44.954;10.068;2023-11-18T14:19:33;15.50;95.60
39881;DHT22;25554;44.954;10.068;2023-11-18T14:22:01;15.40;95.40
39881;DHT22;25554;44.954;10.068;2023-11-18T14:24:33;15.40;95.60
39881;DHT22;25554;44.954;10.068;2023-11-18T14:27:00;15.40;96.00
39881;DHT22;25554;44.954;10.068;2023-11-18T14:29:29;15.40;96.20
39881;DHT22;25554;44.954;10.068;2023-11-18T14:31:55;15.30;96.50
39881;DHT22;25554;44.954;10.068;2023-11-18T14:34:21;15.30;96.60
39881;DHT22;25554;44.954;10.068;2023-11-18T14:36:48;15.30;96.90
39881;DHT22;25554;44.954;10.068;2023-11-18T14:39:14;15.20;97.20
39881;DHT22;25554;44.954;10.068;2023-11-18T14:41:45;14.20;97.20
39881;DHT22;25554;44.954;10.068;2023-11-18T14:44:11;15.00;97.80
39881;DHT22;25554;44.954;10.068;2023-11-18T14:46:38;14.90;97.90
39881;DHT22;25554;44.954;10.068;2023-11-18T14:49:05;14.80;98.20
39881;DHT22;25554;44.954;10.068;2023-11-18T14:51:32;14.60;98.30
39881;DHT22;25554;44.954;10.068;2023-11-18T14:53:58;14.50;98.60
39881;DHT22;25554;44.954;10.068;2023-11-18T14:56:24;14.40;99.00
39881;DHT22;25554;44.954;10.068;2023-11-18T14:58:51;14.20;99.50
39881;DHT22;25554;44.954;10.068;2023-11-18T15:01:18;14.10;99.20
39881;DHT22;25554;44.954;10.068;2023-11-18T15:03:45;13.90;99.30
39881;DHT22;25554;44.954;10.068;2023-11-18T15:06:11;13.80;99.90
39881;DHT22;25554;44.954;10.068;2023-11-18T15:08:38;13.70;99.90
39881;DHT22;25554;44.954;10.068;2023-11-18T15:11:07;13.50;99.90
39881;DHT22;25554;44.954;10.068;2023-11-18T15:13:33;13.40;99.90
39881;DHT22;25554;44.954;10.068;2023-11-18T15:16:01;13.30;99.90
39881;DHT22;25554;44.954;10.068;2023-11-18T15:18:27;13.20;99.90
39881;DHT22;25554;44.954;10.068;2023-11-18T15:20:54;13.10;99.90
39881;DHT22;25554;44.954;10.068;2023-11-18T15:23:22;13.00;99.90
39881;DHT22;25554;44.954;10.068;2023-11-18T15:25:49;12.80;99.90
39881;DHT22;25554;44.954;10.068;2023-11-18T15:28:18;12.80;99.90
39881;DHT22;25554;44.954;10.068;2023-11-18T15:30:45;12.70;99.90
39881;DHT22;25554;44.954;10.068;2023-11-18T15:33:11;12.60;99.90
39881;DHT22;25554;44.954;10.068;2023-11-18T15:35:40;12.40;99.90
39881;DHT22;25554;44.954;10.068;2023-11-18T15:38:11;12.30;99.90
39881;DHT22;25554;44.954;10.068;2023-11-18T15:40:42;12.20;99.90
39881;DHT22;25554;44.954;10.068;2023-11-18T15:43:09;12.10;99.90
39881;DHT22;25554;44.954;10.068;2023-11-18T15:45:38;12.10;99.90
39881;DHT22;25554;44.954;10.068;2023-11-18T15:48:05;12.00;99.90
39881;DHT22;25554;44.954;10.068;2023-11-18T15:50:32;11.90;99.90
39881;DHT22;25554;44.954;10.068;2023-11-18T15:53:03;11.80;99.90